createdAt,value
2023-06-19T00:00:59.374Z,2.17
2023-06-19T00:03:26.054Z,2.30
2023-06-19T00:05:52.830Z,2.20
2023-06-19T00:08:20.607Z,2.17
2023-06-19T00:10:47.115Z,2.35
2023-06-19T00:13:13.627Z,2.33
2023-06-19T00:15:40.221Z,2.60
2023-06-19T00:18:06.829Z,2.67
2023-06-19T00:20:34.323Z,2.30
2023-06-19T00:23:00.844Z,2.20
2023-06-19T00:25:27.400Z,2.30
2023-06-19T00:27:54.725Z,2.40
2023-06-19T00:30:21.701Z,2.60
2023-06-19T00:32:48.515Z,2.50
2023-06-19T00:35:16.004Z,2.60
2023-06-19T00:37:43.245Z,2.85
2023-06-19T00:40:15.298Z,2.63
2023-06-19T00:42:41.751Z,2.60
2023-06-19T00:45:08.792Z,2.50
2023-06-19T00:47:35.470Z,2.60
2023-06-19T00:50:02.229Z,2.40
2023-06-19T00:52:28.757Z,2.70
2023-06-19T00:54:55.669Z,2.83
2023-06-19T00:57:22.910Z,2.80
2023-06-19T00:59:50.169Z,2.90
2023-06-19T01:02:16.930Z,3.20
2023-06-19T01:04:43.667Z,3.10
2023-06-19T01:07:15.858Z,3.05
2023-06-19T01:09:52.157Z,3.03
2023-06-19T01:12:24.147Z,3.25
2023-06-19T01:15:05.666Z,3.17
2023-06-19T01:17:33.163Z,3.28
2023-06-19T01:20:00.208Z,2.97
2023-06-19T01:22:30.872Z,3.03
2023-06-19T01:24:57.910Z,3.50
2023-06-19T01:27:26.204Z,3.75
2023-06-19T01:29:53.484Z,3.47
2023-06-19T01:32:28.445Z,3.80
2023-06-19T01:34:57.074Z,3.67
2023-06-19T01:37:26.222Z,3.80
2023-06-19T01:39:53.725Z,3.60
2023-06-19T01:42:21.379Z,4.00
2023-06-19T01:44:48.749Z,3.97
2023-06-19T01:47:15.404Z,3.70
2023-06-19T01:49:41.890Z,4.07
2023-06-19T01:52:09.832Z,3.60
2023-06-19T01:54:36.434Z,3.45
2023-06-19T01:57:03.706Z,3.75
2023-06-19T01:59:30.378Z,3.60
2023-06-19T02:01:56.841Z,4.07
2023-06-19T02:04:23.360Z,3.95
2023-06-19T02:06:49.936Z,3.95
2023-06-19T02:09:16.438Z,4.28
2023-06-19T02:11:43.071Z,4.20
2023-06-19T02:14:11.879Z,4.10
2023-06-19T02:16:38.980Z,4.60
2023-06-19T02:19:05.719Z,4.40
2023-06-19T02:21:32.216Z,5.25
2023-06-19T02:23:58.877Z,4.67
2023-06-19T02:26:26.217Z,4.55
2023-06-19T02:28:52.724Z,4.38
2023-06-19T02:31:19.301Z,4.82
2023-06-19T02:33:45.809Z,5.13
2023-06-19T02:36:12.285Z,5.60
2023-06-19T02:38:38.795Z,5.78
2023-06-19T02:41:05.271Z,6.55
2023-06-19T02:43:31.821Z,6.97
2023-06-19T02:45:58.387Z,6.72
2023-06-19T02:48:25.273Z,6.47
2023-06-19T02:50:51.757Z,6.63
2023-06-19T02:53:18.367Z,7.78
2023-06-19T02:55:45.011Z,7.57
2023-06-19T02:58:11.579Z,10.00
2023-06-19T03:00:38.202Z,9.33
2023-06-19T03:03:04.870Z,9.50
2023-06-19T03:05:31.391Z,9.75
2023-06-19T03:07:57.896Z,9.75
2023-06-19T03:10:24.876Z,10.30
2023-06-19T03:12:51.829Z,10.13
2023-06-19T03:15:18.464Z,10.23
2023-06-19T03:17:45.028Z,10.35
2023-06-19T03:20:12.036Z,10.95
2023-06-19T03:22:42.212Z,10.60
2023-06-19T03:25:09.364Z,10.33
2023-06-19T03:27:36.035Z,11.50
2023-06-19T03:30:02.640Z,10.27
2023-06-19T03:32:30.752Z,9.98
2023-06-19T03:34:58.910Z,9.05
2023-06-19T03:37:26.270Z,9.97
2023-06-19T03:39:52.793Z,8.88
2023-06-19T03:42:19.326Z,8.88
2023-06-19T03:44:45.946Z,8.15
2023-06-19T03:47:12.574Z,7.80
2023-06-19T03:49:39.139Z,7.37
2023-06-19T03:52:06.160Z,7.60
2023-06-19T03:54:32.636Z,6.30
2023-06-19T03:56:59.161Z,6.43
2023-06-19T03:59:26.070Z,4.88
2023-06-19T04:01:52.604Z,4.20
2023-06-19T04:04:19.264Z,3.65
2023-06-19T04:06:45.834Z,4.30
2023-06-19T04:09:12.322Z,3.80
2023-06-19T04:11:39.000Z,3.45
2023-06-19T04:14:05.726Z,3.60
2023-06-19T04:16:32.274Z,3.25
2023-06-19T04:18:58.972Z,3.30
2023-06-19T04:21:27.330Z,3.35
2023-06-19T04:23:54.245Z,3.78
2023-06-19T04:26:20.834Z,4.10
2023-06-19T04:28:47.376Z,4.28
2023-06-19T04:31:14.066Z,4.50
2023-06-19T04:33:40.726Z,4.75
2023-06-19T04:36:07.413Z,4.72
2023-06-19T04:38:34.021Z,5.17
2023-06-19T04:41:00.612Z,4.90
2023-06-19T04:43:27.423Z,5.13
2023-06-19T04:45:54.011Z,5.30
2023-06-19T04:48:20.611Z,6.28
2023-06-19T04:50:47.222Z,7.63
2023-06-19T04:53:13.895Z,8.63
2023-06-19T04:55:40.743Z,9.40
2023-06-19T04:58:07.279Z,8.70
2023-06-19T05:00:33.807Z,9.80
2023-06-19T05:03:00.401Z,9.33
2023-06-19T05:05:31.053Z,9.25
2023-06-19T05:08:01.378Z,8.93
2023-06-19T05:10:28.922Z,8.85
2023-06-19T05:12:55.564Z,8.85
2023-06-19T05:15:22.214Z,9.40
2023-06-19T05:17:48.918Z,9.40
2023-06-19T05:20:15.977Z,9.43
2023-06-19T05:22:42.529Z,9.43
2023-06-19T05:25:09.634Z,9.00
2023-06-19T05:27:36.182Z,9.10
2023-06-19T05:30:02.830Z,8.80
2023-06-19T05:32:29.433Z,9.43
2023-06-19T05:34:56.142Z,9.60
2023-06-19T05:37:22.792Z,10.23
2023-06-19T05:39:50.537Z,9.33
2023-06-19T05:42:17.123Z,9.52
2023-06-19T05:44:43.723Z,10.20
2023-06-19T05:47:10.218Z,10.35
2023-06-19T05:49:36.739Z,10.88
2023-06-19T05:52:03.547Z,10.63
2023-06-19T05:54:30.068Z,10.38
2023-06-19T05:56:56.980Z,11.10
2023-06-19T05:59:23.542Z,10.73
2023-06-19T06:01:51.532Z,11.18
2023-06-19T06:04:18.196Z,10.03
2023-06-19T06:06:44.801Z,10.73
2023-06-19T06:09:11.520Z,11.43
2023-06-19T06:11:38.093Z,11.38
2023-06-19T06:14:04.687Z,12.20
2023-06-19T06:16:31.221Z,11.40
2023-06-19T06:18:58.559Z,11.10
2023-06-19T06:21:25.216Z,11.55
2023-06-19T06:23:51.840Z,12.10
2023-06-19T06:26:18.404Z,12.63
2023-06-19T06:28:45.033Z,12.13
2023-06-19T06:31:11.953Z,12.77
2023-06-19T06:33:38.534Z,12.73
2023-06-19T06:36:07.158Z,12.85
2023-06-19T06:38:35.270Z,13.25
2023-06-19T06:41:01.936Z,12.90
2023-06-19T06:43:28.545Z,12.63
2023-06-19T06:45:55.116Z,12.98
2023-06-19T06:48:22.128Z,12.70
2023-06-19T06:50:48.847Z,13.80
2023-06-19T06:53:15.530Z,14.30
2023-06-19T06:55:42.193Z,13.98
2023-06-19T06:58:08.781Z,14.63
2023-06-19T07:00:35.367Z,14.65
2023-06-19T07:03:02.324Z,14.77
2023-06-19T07:05:29.212Z,15.50
2023-06-19T07:07:55.989Z,14.90
2023-06-19T07:10:23.610Z,15.77
2023-06-19T07:12:50.429Z,14.43
2023-06-19T07:15:17.368Z,14.05
2023-06-19T07:17:47.345Z,14.63
2023-06-19T07:20:15.006Z,13.90
2023-06-19T07:22:43.012Z,13.25
2023-06-19T07:25:11.773Z,12.55
2023-06-19T07:27:38.878Z,13.73
2023-06-19T07:30:06.230Z,12.80
2023-06-19T07:32:32.932Z,13.35
2023-06-19T07:35:00.073Z,14.23
2023-06-19T07:37:26.965Z,13.20
2023-06-19T07:39:54.186Z,14.98
2023-06-19T07:42:21.164Z,16.20
2023-06-19T07:44:47.777Z,16.15
2023-06-19T07:47:18.278Z,15.35
2023-06-19T07:49:45.681Z,14.30
2023-06-19T07:52:12.281Z,15.00
2023-06-19T07:54:51.065Z,14.60
2023-06-19T07:57:17.577Z,13.48
2023-06-19T07:59:44.207Z,13.57
2023-06-19T08:02:10.757Z,12.85
2023-06-19T08:04:37.406Z,13.05
2023-06-19T08:07:04.219Z,13.20
2023-06-19T08:09:30.723Z,13.68
2023-06-19T08:11:58.382Z,13.23
2023-06-19T08:14:24.996Z,13.70
2023-06-19T08:16:51.603Z,13.82
2023-06-19T08:19:18.218Z,15.53
2023-06-19T08:21:44.741Z,14.65
2023-06-19T08:24:11.387Z,16.60
2023-06-19T08:26:37.935Z,16.58
2023-06-19T08:29:04.481Z,17.13
2023-06-19T08:31:31.186Z,15.27
2023-06-19T08:34:00.723Z,16.17
2023-06-19T08:36:27.611Z,17.02
2023-06-19T08:38:54.112Z,16.83
2023-06-19T08:41:21.128Z,18.17
2023-06-19T08:43:48.003Z,18.30
2023-06-19T08:46:19.093Z,19.02
2023-06-19T08:48:48.546Z,18.27
2023-06-19T08:51:15.197Z,17.75
2023-06-19T08:53:57.029Z,17.00
2023-06-19T08:56:24.141Z,16.90
2023-06-19T08:58:51.711Z,17.80
2023-06-19T09:01:19.775Z,18.25
2023-06-19T09:03:49.851Z,16.00
2023-06-19T09:06:20.009Z,14.27
2023-06-19T09:08:46.613Z,15.23
2023-06-19T09:11:13.251Z,16.25
2023-06-19T09:13:39.777Z,14.90
2023-06-19T09:16:08.676Z,14.98
2023-06-19T09:18:49.296Z,14.27
2023-06-19T09:21:20.371Z,15.07
2023-06-19T09:23:47.530Z,14.65
2023-06-19T09:26:17.925Z,14.55
2023-06-19T09:28:44.920Z,13.77
2023-06-19T09:31:11.975Z,14.48
2023-06-19T09:33:41.170Z,14.33
2023-06-19T09:36:08.288Z,12.23
2023-06-19T09:38:38.499Z,12.57
2023-06-19T09:41:06.635Z,12.20
2023-06-19T09:43:43.300Z,13.50
2023-06-19T09:46:12.033Z,13.20
2023-06-19T09:48:45.994Z,12.65
2023-06-19T09:51:30.842Z,12.73
2023-06-19T09:53:59.433Z,11.48
2023-06-19T09:56:26.097Z,12.50
2023-06-19T09:58:55.889Z,13.13
2023-06-19T10:01:23.805Z,11.85
2023-06-19T10:03:50.496Z,11.35
2023-06-19T10:06:18.624Z,11.05
2023-06-19T10:08:46.301Z,12.25
2023-06-19T10:11:16.165Z,12.20
2023-06-19T10:13:43.937Z,11.15
2023-06-19T10:16:23.550Z,11.27
2023-06-19T10:18:51.627Z,11.60
2023-06-19T10:21:22.887Z,12.18
2023-06-19T10:23:57.278Z,11.70
2023-06-19T10:27:03.358Z,11.75
2023-06-19T10:29:40.299Z,11.82
2023-06-19T10:32:08.517Z,11.77
2023-06-19T10:34:36.007Z,11.65
2023-06-19T10:37:03.278Z,12.13
2023-06-19T10:39:31.352Z,11.10
2023-06-19T10:41:57.959Z,10.35
2023-06-19T10:44:24.957Z,11.85
2023-06-19T10:46:53.749Z,11.77
2023-06-19T10:49:22.188Z,10.63
2023-06-19T10:51:49.957Z,10.77
2023-06-19T10:54:17.483Z,11.15
2023-06-19T10:56:44.026Z,9.35
2023-06-19T10:59:12.165Z,9.65
2023-06-19T11:01:40.934Z,10.30
2023-06-19T11:04:09.408Z,10.27
2023-06-19T11:06:37.015Z,10.30
2023-06-19T11:09:04.639Z,9.25
2023-06-19T11:11:46.026Z,9.30
2023-06-19T11:14:14.320Z,9.83
2023-06-19T11:16:46.476Z,9.68
2023-06-19T11:19:21.249Z,10.57
2023-06-19T11:21:50.147Z,10.38
2023-06-19T11:24:17.553Z,10.10
2023-06-19T11:26:46.564Z,9.07
2023-06-19T11:29:26.428Z,9.50
2023-06-19T11:32:10.041Z,10.23
2023-06-19T11:34:38.143Z,9.13
2023-06-19T11:37:18.475Z,8.90
2023-06-19T11:39:46.620Z,8.17
2023-06-19T11:42:13.322Z,8.77
2023-06-19T11:45:04.032Z,7.85
2023-06-19T11:47:34.251Z,9.25
2023-06-19T11:50:01.397Z,8.45
2023-06-19T11:52:28.064Z,7.23
2023-06-19T11:54:54.582Z,8.05
2023-06-19T11:57:21.316Z,9.65
2023-06-19T11:59:47.892Z,8.88
2023-06-19T12:02:14.604Z,9.32
2023-06-19T12:04:41.463Z,9.03
2023-06-19T12:07:08.172Z,8.68
2023-06-19T12:09:34.897Z,8.75
2023-06-19T12:12:01.926Z,8.18
2023-06-19T12:14:28.545Z,8.13
2023-06-19T12:16:55.386Z,8.60
2023-06-19T12:19:22.123Z,8.93
2023-06-19T12:21:48.694Z,8.18
2023-06-19T12:24:15.463Z,9.00
2023-06-19T12:26:42.060Z,8.60
2023-06-19T12:29:08.864Z,8.47
2023-06-19T12:31:36.212Z,8.85
2023-06-19T12:34:13.504Z,8.70
2023-06-19T12:36:50.268Z,8.20
2023-06-19T12:39:16.874Z,8.55
2023-06-19T12:41:43.413Z,8.97
2023-06-19T12:44:10.017Z,9.25
2023-06-19T12:46:36.851Z,9.00
2023-06-19T12:49:03.700Z,9.02
2023-06-19T12:51:30.715Z,8.48
2023-06-19T12:53:57.433Z,7.70
2023-06-19T12:56:24.193Z,8.38
2023-06-19T12:58:50.859Z,8.70
2023-06-19T13:01:17.639Z,9.10
2023-06-19T13:03:44.614Z,8.43
2023-06-19T13:06:11.172Z,7.90
2023-06-19T13:08:37.751Z,8.20
2023-06-19T13:11:05.774Z,8.32
2023-06-19T13:13:32.871Z,8.75
2023-06-19T13:15:59.715Z,9.25
2023-06-19T13:18:26.276Z,8.37
2023-06-19T13:20:52.922Z,8.32
2023-06-19T13:23:19.574Z,8.30
2023-06-19T13:25:46.337Z,8.00
2023-06-19T13:28:12.956Z,8.30
2023-06-19T13:30:39.589Z,7.93
2023-06-19T13:33:06.327Z,7.97
2023-06-19T13:35:33.085Z,7.45
2023-06-19T13:37:59.832Z,6.93
2023-06-19T13:40:26.696Z,7.05
2023-06-19T13:42:53.372Z,7.20
2023-06-19T13:45:20.076Z,7.32
2023-06-19T13:47:46.788Z,7.30
2023-06-19T13:50:13.433Z,6.55
2023-06-19T13:52:42.729Z,6.47
2023-06-19T13:55:09.629Z,7.20
2023-06-19T13:57:36.296Z,6.82
2023-06-19T14:00:03.191Z,6.45
2023-06-19T14:02:29.818Z,6.63
2023-06-19T14:04:56.756Z,8.15
2023-06-19T14:07:23.446Z,7.03
2023-06-19T14:09:50.046Z,7.80
2023-06-19T14:12:16.593Z,8.25
2023-06-19T14:14:43.275Z,8.70
2023-06-19T14:17:09.911Z,7.75
2023-06-19T14:19:36.512Z,7.40
2023-06-19T14:22:03.410Z,7.47
2023-06-19T14:24:30.144Z,7.53
2023-06-19T14:26:56.822Z,7.47
2023-06-19T14:29:23.311Z,6.30
2023-06-19T14:31:52.643Z,6.63
2023-06-19T14:34:21.918Z,6.25
2023-06-19T14:36:48.737Z,6.47
2023-06-19T14:39:15.225Z,6.28
2023-06-19T14:41:41.886Z,6.90
2023-06-19T14:44:08.607Z,6.67
2023-06-19T14:46:39.536Z,6.60
2023-06-19T14:49:11.280Z,6.05
2023-06-19T14:51:37.842Z,6.15
2023-06-19T14:54:04.434Z,6.22
2023-06-19T14:56:31.016Z,6.40
2023-06-19T14:58:57.837Z,6.60
2023-06-19T15:01:24.492Z,7.60
2023-06-19T15:03:51.292Z,6.88
2023-06-19T15:06:17.890Z,6.40
2023-06-19T15:08:44.595Z,5.85
2023-06-19T15:11:11.258Z,6.97
2023-06-19T15:13:37.824Z,7.70
2023-06-19T15:16:04.645Z,7.88
2023-06-19T15:18:31.240Z,6.80
2023-06-19T15:20:57.802Z,6.85
2023-06-19T15:23:24.543Z,7.38
2023-06-19T15:25:51.038Z,6.90
2023-06-19T15:28:17.558Z,7.30
2023-06-19T15:30:44.163Z,7.70
2023-06-19T15:33:11.018Z,7.53
2023-06-19T15:35:37.567Z,8.30
2023-06-19T15:38:06.905Z,7.22
2023-06-19T15:40:33.996Z,7.50
2023-06-19T15:43:00.738Z,7.30
2023-06-19T15:45:27.273Z,7.45
2023-06-19T15:47:53.977Z,7.03
2023-06-19T15:50:20.657Z,7.13
2023-06-19T15:52:47.306Z,7.70
2023-06-19T15:55:14.837Z,7.07
2023-06-19T15:57:41.459Z,7.40
2023-06-19T16:00:08.803Z,7.50
2023-06-19T16:02:35.452Z,7.30
2023-06-19T16:05:02.224Z,7.50
2023-06-19T16:07:28.921Z,7.53
2023-06-19T16:09:56.094Z,8.15
2023-06-19T16:12:23.370Z,7.38
2023-06-19T16:14:49.986Z,7.15
2023-06-19T16:17:16.483Z,7.38
2023-06-19T16:19:43.001Z,7.10
2023-06-19T16:22:09.516Z,7.57
2023-06-19T16:24:36.076Z,7.45
2023-06-19T16:27:02.630Z,7.47
2023-06-19T16:29:29.188Z,7.40
2023-06-19T16:32:08.033Z,7.00
2023-06-19T16:34:36.394Z,7.25
2023-06-19T16:37:03.125Z,7.13
2023-06-19T16:39:29.767Z,7.20
2023-06-19T16:41:56.298Z,7.63
2023-06-19T16:44:22.950Z,7.57
2023-06-19T16:46:50.428Z,8.65
2023-06-19T16:49:18.304Z,8.30
2023-06-19T16:51:45.143Z,7.93
2023-06-19T16:54:11.941Z,8.00
2023-06-19T16:56:38.680Z,9.23
2023-06-19T16:59:05.231Z,8.25
2023-06-19T17:01:31.834Z,8.02
2023-06-19T17:03:58.557Z,7.55
2023-06-19T17:06:25.596Z,8.20
2023-06-19T17:08:52.457Z,7.83
2023-06-19T17:11:21.031Z,7.72
2023-06-19T17:13:47.845Z,7.55
2023-06-19T17:16:14.682Z,8.25
2023-06-19T17:18:41.369Z,8.70
2023-06-19T17:21:07.988Z,7.97
2023-06-19T17:23:35.339Z,7.57
2023-06-19T17:26:02.076Z,7.32
2023-06-19T17:28:28.684Z,7.32
2023-06-19T17:30:55.394Z,7.22
2023-06-19T17:33:22.013Z,7.17
2023-06-19T17:35:48.701Z,7.20
2023-06-19T17:38:15.448Z,7.10
2023-06-19T17:40:42.078Z,6.95
2023-06-19T17:43:08.922Z,7.25
2023-06-19T17:45:36.050Z,7.30
2023-06-19T17:48:02.694Z,7.55
2023-06-19T17:50:29.348Z,7.57
2023-06-19T17:52:55.905Z,7.00
2023-06-19T17:55:22.533Z,7.10
2023-06-19T17:57:49.094Z,7.30
2023-06-19T18:00:15.934Z,7.00
2023-06-19T18:02:42.567Z,6.93
2023-06-19T18:05:09.359Z,7.03
2023-06-19T18:07:37.422Z,7.65
2023-06-19T18:10:04.661Z,7.10
2023-06-19T18:12:31.494Z,7.20
2023-06-19T18:14:57.976Z,6.90
2023-06-19T18:17:24.713Z,7.10
2023-06-19T18:19:51.652Z,6.72
2023-06-19T18:22:18.312Z,6.90
2023-06-19T18:24:44.977Z,7.28
2023-06-19T18:27:11.648Z,7.00
2023-06-19T18:29:38.146Z,6.90
2023-06-19T18:32:05.675Z,7.18
2023-06-19T18:34:32.312Z,6.97
2023-06-19T18:36:58.768Z,7.15
2023-06-19T18:39:25.623Z,7.20
2023-06-19T18:41:52.559Z,6.63
2023-06-19T18:44:19.111Z,7.10
2023-06-19T18:46:45.771Z,6.50
2023-06-19T18:49:12.384Z,6.47
2023-06-19T18:51:38.954Z,6.47
2023-06-19T18:54:05.696Z,6.68
2023-06-19T18:56:32.628Z,6.70
2023-06-19T18:58:59.498Z,6.27
2023-06-19T19:01:26.315Z,6.60
2023-06-19T19:03:53.018Z,6.80
2023-06-19T19:06:19.661Z,6.90
2023-06-19T19:08:46.209Z,6.57
2023-06-19T19:11:12.770Z,6.43
2023-06-19T19:13:39.741Z,6.47
2023-06-19T19:16:06.518Z,6.60
2023-06-19T19:18:33.414Z,6.35
2023-06-19T19:21:00.085Z,6.15
2023-06-19T19:23:26.809Z,5.90
2023-06-19T19:25:53.508Z,6.63
2023-06-19T19:28:20.265Z,6.70
2023-06-19T19:30:47.076Z,6.53
2023-06-19T19:33:13.801Z,6.72
2023-06-19T19:35:40.627Z,6.60
2023-06-19T19:38:07.469Z,6.50
2023-06-19T19:40:34.380Z,6.82
2023-06-19T19:43:01.139Z,6.68
2023-06-19T19:45:28.033Z,7.53
2023-06-19T19:47:54.776Z,6.87
2023-06-19T19:50:21.446Z,6.72
2023-06-19T19:52:48.113Z,6.50
2023-06-19T19:55:14.928Z,6.90
2023-06-19T19:57:41.660Z,6.63
2023-06-19T20:00:09.099Z,6.70
2023-06-19T20:02:35.910Z,6.85
2023-06-19T20:05:02.466Z,6.63
2023-06-19T20:07:29.012Z,6.45
2023-06-19T20:09:55.694Z,6.63
2023-06-19T20:12:22.546Z,6.87
2023-06-19T20:14:49.864Z,6.43
2023-06-19T20:17:16.665Z,6.63
2023-06-19T20:19:43.213Z,6.45
2023-06-19T20:22:12.023Z,6.60
2023-06-19T20:24:39.320Z,6.90
2023-06-19T20:27:06.485Z,7.20
2023-06-19T20:29:33.410Z,7.03
2023-06-19T20:32:00.004Z,6.43
2023-06-19T20:34:26.547Z,7.03
2023-06-19T20:36:53.225Z,6.60
2023-06-19T20:39:19.727Z,6.43
2023-06-19T20:41:46.314Z,6.57
2023-06-19T20:44:12.988Z,6.55
2023-06-19T20:46:39.971Z,6.47
2023-06-19T20:49:06.553Z,6.73
2023-06-19T20:51:33.228Z,6.88
2023-06-19T20:53:59.927Z,6.75
2023-06-19T20:56:26.498Z,6.90
2023-06-19T20:58:53.363Z,6.30
2023-06-19T21:01:23.498Z,6.50
2023-06-19T21:03:50.468Z,6.60
2023-06-19T21:06:17.787Z,6.60
2023-06-19T21:08:44.975Z,6.70
2023-06-19T21:11:11.639Z,6.80
2023-06-19T21:13:38.763Z,6.97
2023-06-19T21:16:05.895Z,6.57
2023-06-19T21:18:32.495Z,7.28
2023-06-19T21:20:59.094Z,7.20
2023-06-19T21:23:25.643Z,7.35
2023-06-19T21:25:52.202Z,6.70
2023-06-19T21:28:18.872Z,6.93
2023-06-19T21:30:45.457Z,7.30
2023-06-19T21:33:12.158Z,6.97
2023-06-19T21:35:38.871Z,7.10
2023-06-19T21:38:05.431Z,7.70
2023-06-19T21:40:31.958Z,8.20
2023-06-19T21:42:58.590Z,7.68
2023-06-19T21:45:25.135Z,7.72
2023-06-19T21:47:52.117Z,7.70
2023-06-19T21:50:18.819Z,7.50
2023-06-19T21:52:45.352Z,7.65
2023-06-19T21:55:12.025Z,7.75
2023-06-19T21:57:46.086Z,7.20
2023-06-19T22:00:16.861Z,7.68
2023-06-19T22:02:43.992Z,7.20
2023-06-19T22:05:13.075Z,7.85
2023-06-19T22:07:39.611Z,7.35
2023-06-19T22:10:06.818Z,7.63
2023-06-19T22:12:33.425Z,7.45
2023-06-19T22:14:59.999Z,7.23
2023-06-19T22:17:26.549Z,7.55
2023-06-19T22:19:53.194Z,7.35
2023-06-19T22:22:19.709Z,7.93
2023-06-19T22:24:46.255Z,8.13
2023-06-19T22:27:12.975Z,7.93
2023-06-19T22:29:39.848Z,8.35
2023-06-19T22:32:06.647Z,8.80
2023-06-19T22:34:33.353Z,8.07
2023-06-19T22:37:00.078Z,7.80
2023-06-19T22:39:27.144Z,8.47
2023-06-19T22:41:53.807Z,8.38
2023-06-19T22:44:20.392Z,8.43
2023-06-19T22:46:46.927Z,8.50
2023-06-19T22:49:13.526Z,8.68
2023-06-19T22:51:41.002Z,8.50
2023-06-19T22:54:07.624Z,8.98
2023-06-19T22:56:34.289Z,9.32
2023-06-19T22:59:00.793Z,8.80
2023-06-19T23:01:27.769Z,9.10
2023-06-19T23:03:54.498Z,9.80
2023-06-19T23:06:21.205Z,8.90
2023-06-19T23:08:47.888Z,9.35
2023-06-19T23:11:14.605Z,9.00
2023-06-19T23:13:41.074Z,9.43
2023-06-19T23:16:08.051Z,9.03
2023-06-19T23:18:34.561Z,9.50
2023-06-19T23:21:01.280Z,9.23
2023-06-19T23:23:28.358Z,9.02
2023-06-19T23:25:54.809Z,9.70
2023-06-19T23:28:21.620Z,9.87
2023-06-19T23:30:48.210Z,8.70
2023-06-19T23:33:14.746Z,9.32
2023-06-19T23:35:41.392Z,9.13
2023-06-19T23:38:09.289Z,9.73
2023-06-19T23:40:35.840Z,9.20
2023-06-19T23:43:02.474Z,9.40
2023-06-19T23:45:29.046Z,9.13
2023-06-19T23:47:55.721Z,8.95
2023-06-19T23:50:22.398Z,9.18
2023-06-19T23:52:49.005Z,8.80
2023-06-19T23:55:15.751Z,8.88
2023-06-19T23:57:42.374Z,8.90
